sensor_id;sensor_type;location;lat;lon;timestamp;pressure;altitude;pressure_sealevel;temperature
8227;BMP180;4154;48.810;9.012;2023-07-20T00:01:39;97025.00;;;19.80
8227;BMP180;4154;48.810;9.012;2023-07-20T00:04:06;97037.00;;;19.80
8227;BMP180;4154;48.810;9.012;2023-07-20T00:06:32;97039.00;;;19.70
8227;BMP180;4154;48.810;9.012;2023-07-20T00:08:58;97042.00;;;19.70
8227;BMP180;4154;48.810;9.012;2023-07-20T00:11:27;97050.00;;;19.70
8227;BMP180;4154;48.810;9.012;2023-07-20T00:13:53;97037.00;;;19.70
8227;BMP180;4154;48.810;9.012;2023-07-20T00:16:19;97039.00;;;19.70
8227;BMP180;4154;48.810;9.012;2023-07-20T00:18:45;97028.00;;;19.60
8227;BMP180;4154;48.810;9.012;2023-07-20T00:21:11;97032.00;;;19.60
8227;BMP180;4154;48.810;9.012;2023-07-20T00:23:38;97044.00;;;19.60
8227;BMP180;4154;48.810;9.012;2023-07-20T00:26:03;97037.00;;;19.60
8227;BMP180;4154;48.810;9.012;2023-07-20T00:28:29;97042.00;;;19.60
8227;BMP180;4154;48.810;9.012;2023-07-20T00:30:55;97040.00;;;19.50
8227;BMP180;4154;48.810;9.012;2023-07-20T00:33:21;97042.00;;;19.50
8227;BMP180;4154;48.810;9.012;2023-07-20T00:35:46;97038.00;;;19.50
8227;BMP180;4154;48.810;9.012;2023-07-20T00:38:12;97036.00;;;19.40
8227;BMP180;4154;48.810;9.012;2023-07-20T00:40:39;97037.00;;;19.40
8227;BMP180;4154;48.810;9.012;2023-07-20T00:43:05;97051.00;;;19.40
8227;BMP180;4154;48.810;9.012;2023-07-20T00:45:32;97033.00;;;19.30
8227;BMP180;4154;48.810;9.012;2023-07-20T00:47:58;97042.00;;;19.20
8227;BMP180;4154;48.810;9.012;2023-07-20T00:50:26;97042.00;;;19.30
8227;BMP180;4154;48.810;9.012;2023-07-20T00:52:54;97034.00;;;19.20
8227;BMP180;4154;48.810;9.012;2023-07-20T00:55:21;97036.00;;;19.20
8227;BMP180;4154;48.810;9.012;2023-07-20T00:57:48;97040.00;;;19.20
8227;BMP180;4154;48.810;9.012;2023-07-20T01:00:15;97043.00;;;19.20
8227;BMP180;4154;48.810;9.012;2023-07-20T01:02:40;97057.00;;;19.20
8227;BMP180;4154;48.810;9.012;2023-07-20T01:05:07;97043.00;;;19.10
8227;BMP180;4154;48.810;9.012;2023-07-20T01:07:39;97043.00;;;19.10
8227;BMP180;4154;48.810;9.012;2023-07-20T01:10:38;97047.00;;;19.10
8227;BMP180;4154;48.810;9.012;2023-07-20T01:13:07;97053.00;;;19.00
8227;BMP180;4154;48.810;9.012;2023-07-20T01:15:35;97034.00;;;18.90
8227;BMP180;4154;48.810;9.012;2023-07-20T01:18:01;97036.00;;;18.90
8227;BMP180;4154;48.810;9.012;2023-07-20T01:20:30;97037.00;;;18.90
8227;BMP180;4154;48.810;9.012;2023-07-20T01:28:35;97042.00;;;18.70
8227;BMP180;4154;48.810;9.012;2023-07-20T01:31:38;97039.00;;;18.60
8227;BMP180;4154;48.810;9.012;2023-07-20T01:34:07;97043.00;;;18.60
8227;BMP180;4154;48.810;9.012;2023-07-20T01:36:36;97044.00;;;18.50
8227;BMP180;4154;48.810;9.012;2023-07-20T01:39:03;97049.00;;;18.50
8227;BMP180;4154;48.810;9.012;2023-07-20T01:41:30;97039.00;;;18.50
8227;BMP180;4154;48.810;9.012;2023-07-20T01:43:59;97045.00;;;18.50
8227;BMP180;4154;48.810;9.012;2023-07-20T01:46:25;97047.00;;;18.40
8227;BMP180;4154;48.810;9.012;2023-07-20T01:48:52;97045.00;;;18.30
8227;BMP180;4154;48.810;9.012;2023-07-20T01:51:18;97040.00;;;18.30
8227;BMP180;4154;48.810;9.012;2023-07-20T01:53:44;97036.00;;;18.30
8227;BMP180;4154;48.810;9.012;2023-07-20T01:56:10;97038.00;;;18.20
8227;BMP180;4154;48.810;9.012;2023-07-20T01:58:38;97043.00;;;18.20
8227;BMP180;4154;48.810;9.012;2023-07-20T02:01:04;97045.00;;;18.20
8227;BMP180;4154;48.810;9.012;2023-07-20T02:03:30;97042.00;;;18.10
8227;BMP180;4154;48.810;9.012;2023-07-20T02:05:56;97038.00;;;18.10
8227;BMP180;4154;48.810;9.012;2023-07-20T02:08:24;97046.00;;;18.00
8227;BMP180;4154;48.810;9.012;2023-07-20T02:10:51;97034.00;;;18.00
8227;BMP180;4154;48.810;9.012;2023-07-20T02:13:17;97038.00;;;18.00
8227;BMP180;4154;48.810;9.012;2023-07-20T02:15:43;97046.00;;;17.90
8227;BMP180;4154;48.810;9.012;2023-07-20T02:18:10;97042.00;;;17.80
8227;BMP180;4154;48.810;9.012;2023-07-20T02:20:36;97038.00;;;17.80
8227;BMP180;4154;48.810;9.012;2023-07-20T02:23:02;97041.00;;;17.80
8227;BMP180;4154;48.810;9.012;2023-07-20T02:25:28;97042.00;;;17.70
8227;BMP180;4154;48.810;9.012;2023-07-20T02:27:55;97042.00;;;17.70
8227;BMP180;4154;48.810;9.012;2023-07-20T02:30:22;97044.00;;;17.70
8227;BMP180;4154;48.810;9.012;2023-07-20T02:32:47;97035.00;;;17.70
8227;BMP180;4154;48.810;9.012;2023-07-20T02:35:15;97039.00;;;17.60
8227;BMP180;4154;48.810;9.012;2023-07-20T02:37:40;97050.00;;;17.60
8227;BMP180;4154;48.810;9.012;2023-07-20T02:40:07;97045.00;;;17.60
8227;BMP180;4154;48.810;9.012;2023-07-20T02:42:33;97049.00;;;17.60
8227;BMP180;4154;48.810;9.012;2023-07-20T02:44:59;97050.00;;;17.50
8227;BMP180;4154;48.810;9.012;2023-07-20T02:47:24;97046.00;;;17.40
8227;BMP180;4154;48.810;9.012;2023-07-20T02:49:51;97043.00;;;17.50
8227;BMP180;4154;48.810;9.012;2023-07-20T02:52:16;97045.00;;;17.40
8227;BMP180;4154;48.810;9.012;2023-07-20T02:54:42;97059.00;;;17.40
8227;BMP180;4154;48.810;9.012;2023-07-20T02:57:08;97062.00;;;17.40
8227;BMP180;4154;48.810;9.012;2023-07-20T02:59:34;97057.00;;;17.50
8227;BMP180;4154;48.810;9.012;2023-07-20T03:02:01;97063.00;;;17.40
8227;BMP180;4154;48.810;9.012;2023-07-20T03:04:27;97053.00;;;17.40
8227;BMP180;4154;48.810;9.012;2023-07-20T03:06:53;97051.00;;;17.40
8227;BMP180;4154;48.810;9.012;2023-07-20T03:09:19;97052.00;;;17.40
8227;BMP180;4154;48.810;9.012;2023-07-20T03:11:45;97055.00;;;17.30
8227;BMP180;4154;48.810;9.012;2023-07-20T03:14:11;97046.00;;;17.40
8227;BMP180;4154;48.810;9.012;2023-07-20T03:16:37;97060.00;;;17.30
8227;BMP180;4154;48.810;9.012;2023-07-20T03:19:03;97060.00;;;17.30
8227;BMP180;4154;48.810;9.012;2023-07-20T03:21:30;97057.00;;;17.30
8227;BMP180;4154;48.810;9.012;2023-07-20T03:23:55;97051.00;;;17.20
8227;BMP180;4154;48.810;9.012;2023-07-20T03:26:22;97064.00;;;17.20
8227;BMP180;4154;48.810;9.012;2023-07-20T03:28:48;97062.00;;;17.10
8227;BMP180;4154;48.810;9.012;2023-07-20T03:31:14;97061.00;;;17.10
8227;BMP180;4154;48.810;9.012;2023-07-20T03:33:40;97065.00;;;17.10
8227;BMP180;4154;48.810;9.012;2023-07-20T03:36:06;97065.00;;;17.00
8227;BMP180;4154;48.810;9.012;2023-07-20T03:38:32;97057.00;;;16.90
8227;BMP180;4154;48.810;9.012;2023-07-20T03:41:00;97061.00;;;16.90
8227;BMP180;4154;48.810;9.012;2023-07-20T03:43:27;97068.00;;;16.90
8227;BMP180;4154;48.810;9.012;2023-07-20T03:45:54;97068.00;;;16.90
8227;BMP180;4154;48.810;9.012;2023-07-20T03:48:24;97064.00;;;16.80
8227;BMP180;4154;48.810;9.012;2023-07-20T03:50:52;97067.00;;;16.80
8227;BMP180;4154;48.810;9.012;2023-07-20T03:53:19;97070.00;;;16.70
8227;BMP180;4154;48.810;9.012;2023-07-20T03:55:46;97078.00;;;16.70
8227;BMP180;4154;48.810;9.012;2023-07-20T03:58:13;97069.00;;;16.70
8227;BMP180;4154;48.810;9.012;2023-07-20T04:00:39;97070.00;;;16.60
8227;BMP180;4154;48.810;9.012;2023-07-20T04:03:06;97065.00;;;16.60
8227;BMP180;4154;48.810;9.012;2023-07-20T04:05:32;97077.00;;;16.60
8227;BMP180;4154;48.810;9.012;2023-07-20T04:07:58;97073.00;;;16.50
8227;BMP180;4154;48.810;9.012;2023-07-20T04:10:24;97075.00;;;16.50
8227;BMP180;4154;48.810;9.012;2023-07-20T04:12:50;97077.00;;;16.50
8227;BMP180;4154;48.810;9.012;2023-07-20T04:15:15;97077.00;;;16.60
8227;BMP180;4154;48.810;9.012;2023-07-20T04:17:42;97072.00;;;16.50
8227;BMP180;4154;48.810;9.012;2023-07-20T04:20:08;97081.00;;;16.50
8227;BMP180;4154;48.810;9.012;2023-07-20T04:22:35;97075.00;;;16.50
8227;BMP180;4154;48.810;9.012;2023-07-20T04:25:01;97083.00;;;16.50
8227;BMP180;4154;48.810;9.012;2023-07-20T04:27:27;97085.00;;;16.50
8227;BMP180;4154;48.810;9.012;2023-07-20T04:29:53;97077.00;;;16.60
8227;BMP180;4154;48.810;9.012;2023-07-20T04:32:18;97072.00;;;16.60
8227;BMP180;4154;48.810;9.012;2023-07-20T04:34:44;97078.00;;;16.60
8227;BMP180;4154;48.810;9.012;2023-07-20T04:37:10;97092.00;;;16.60
8227;BMP180;4154;48.810;9.012;2023-07-20T04:39:36;97088.00;;;16.60
8227;BMP180;4154;48.810;9.012;2023-07-20T04:42:02;97076.00;;;16.70
8227;BMP180;4154;48.810;9.012;2023-07-20T04:44:27;97077.00;;;16.70
8227;BMP180;4154;48.810;9.012;2023-07-20T04:46:53;97086.00;;;16.70
8227;BMP180;4154;48.810;9.012;2023-07-20T04:49:19;97081.00;;;16.70
8227;BMP180;4154;48.810;9.012;2023-07-20T04:51:45;97084.00;;;16.80
8227;BMP180;4154;48.810;9.012;2023-07-20T04:54:11;97085.00;;;16.80
8227;BMP180;4154;48.810;9.012;2023-07-20T04:56:37;97091.00;;;16.80
8227;BMP180;4154;48.810;9.012;2023-07-20T04:59:03;97085.00;;;16.90
8227;BMP180;4154;48.810;9.012;2023-07-20T05:01:28;97085.00;;;16.90
8227;BMP180;4154;48.810;9.012;2023-07-20T05:03:54;97090.00;;;17.00
8227;BMP180;4154;48.810;9.012;2023-07-20T05:06:20;97087.00;;;17.10
8227;BMP180;4154;48.810;9.012;2023-07-20T05:08:46;97096.00;;;17.10
8227;BMP180;4154;48.810;9.012;2023-07-20T05:11:12;97086.00;;;17.20
8227;BMP180;4154;48.810;9.012;2023-07-20T05:13:38;97085.00;;;17.30
8227;BMP180;4154;48.810;9.012;2023-07-20T05:16:04;97085.00;;;17.30
8227;BMP180;4154;48.810;9.012;2023-07-20T05:18:30;97091.00;;;17.30
8227;BMP180;4154;48.810;9.012;2023-07-20T05:20:57;97088.00;;;17.40
8227;BMP180;4154;48.810;9.012;2023-07-20T05:23:23;97088.00;;;17.40
8227;BMP180;4154;48.810;9.012;2023-07-20T05:25:57;97085.00;;;17.50
8227;BMP180;4154;48.810;9.012;2023-07-20T05:28:24;97087.00;;;17.50
8227;BMP180;4154;48.810;9.012;2023-07-20T05:30:51;97081.00;;;17.60
8227;BMP180;4154;48.810;9.012;2023-07-20T05:33:18;97088.00;;;17.60
8227;BMP180;4154;48.810;9.012;2023-07-20T05:35:44;97084.00;;;17.70
8227;BMP180;4154;48.810;9.012;2023-07-20T05:38:10;97078.00;;;17.70
8227;BMP180;4154;48.810;9.012;2023-07-20T05:40:39;97079.00;;;17.80
8227;BMP180;4154;48.810;9.012;2023-07-20T05:43:05;97080.00;;;17.90
8227;BMP180;4154;48.810;9.012;2023-07-20T05:45:31;97065.00;;;17.90
8227;BMP180;4154;48.810;9.012;2023-07-20T05:47:56;97070.00;;;18.00
8227;BMP180;4154;48.810;9.012;2023-07-20T05:50:23;97076.00;;;18.10
8227;BMP180;4154;48.810;9.012;2023-07-20T05:52:48;97074.00;;;18.10
8227;BMP180;4154;48.810;9.012;2023-07-20T05:55:14;97072.00;;;18.20
8227;BMP180;4154;48.810;9.012;2023-07-20T05:57:40;97076.00;;;18.30
8227;BMP180;4154;48.810;9.012;2023-07-20T06:00:08;97071.00;;;18.30
8227;BMP180;4154;48.810;9.012;2023-07-20T06:02:35;97081.00;;;18.30
8227;BMP180;4154;48.810;9.012;2023-07-20T06:05:01;97078.00;;;18.40
8227;BMP180;4154;48.810;9.012;2023-07-20T06:07:27;97087.00;;;18.40
8227;BMP180;4154;48.810;9.012;2023-07-20T06:09:52;97087.00;;;18.50
8227;BMP180;4154;48.810;9.012;2023-07-20T06:12:19;97082.00;;;18.50
8227;BMP180;4154;48.810;9.012;2023-07-20T06:14:45;97082.00;;;18.50
8227;BMP180;4154;48.810;9.012;2023-07-20T06:17:11;97081.00;;;18.60
8227;BMP180;4154;48.810;9.012;2023-07-20T06:19:38;97090.00;;;18.60
8227;BMP180;4154;48.810;9.012;2023-07-20T06:22:04;97091.00;;;18.60
8227;BMP180;4154;48.810;9.012;2023-07-20T06:24:30;97084.00;;;18.70
8227;BMP180;4154;48.810;9.012;2023-07-20T06:26:56;97090.00;;;18.70
8227;BMP180;4154;48.810;9.012;2023-07-20T06:29:22;97085.00;;;18.70
8227;BMP180;4154;48.810;9.012;2023-07-20T06:31:48;97093.00;;;18.80
8227;BMP180;4154;48.810;9.012;2023-07-20T06:34:14;97091.00;;;18.80
8227;BMP180;4154;48.810;9.012;2023-07-20T06:36:40;97090.00;;;18.80
8227;BMP180;4154;48.810;9.012;2023-07-20T06:39:06;97098.00;;;18.90
8227;BMP180;4154;48.810;9.012;2023-07-20T06:41:32;97086.00;;;18.90
8227;BMP180;4154;48.810;9.012;2023-07-20T06:43:58;97084.00;;;18.90
8227;BMP180;4154;48.810;9.012;2023-07-20T06:46:28;97078.00;;;18.90
8227;BMP180;4154;48.810;9.012;2023-07-20T06:48:54;97083.00;;;19.00
8227;BMP180;4154;48.810;9.012;2023-07-20T06:51:20;97087.00;;;19.00
8227;BMP180;4154;48.810;9.012;2023-07-20T06:53:46;97083.00;;;19.00
8227;BMP180;4154;48.810;9.012;2023-07-20T06:56:12;97085.00;;;19.00
8227;BMP180;4154;48.810;9.012;2023-07-20T06:58:39;97073.00;;;19.00
8227;BMP180;4154;48.810;9.012;2023-07-20T07:01:08;97086.00;;;19.10
8227;BMP180;4154;48.810;9.012;2023-07-20T07:03:34;97073.00;;;19.10
8227;BMP180;4154;48.810;9.012;2023-07-20T07:06:00;97077.00;;;19.10
8227;BMP180;4154;48.810;9.012;2023-07-20T07:08:26;97086.00;;;19.10
8227;BMP180;4154;48.810;9.012;2023-07-20T07:10:52;97077.00;;;19.20
8227;BMP180;4154;48.810;9.012;2023-07-20T07:13:19;97071.00;;;19.20
8227;BMP180;4154;48.810;9.012;2023-07-20T07:15:45;97073.00;;;19.30
8227;BMP180;4154;48.810;9.012;2023-07-20T07:18:11;97079.00;;;19.30
8227;BMP180;4154;48.810;9.012;2023-07-20T07:20:38;97080.00;;;19.30
8227;BMP180;4154;48.810;9.012;2023-07-20T07:23:04;97071.00;;;19.50
8227;BMP180;4154;48.810;9.012;2023-07-20T07:25:30;97069.00;;;19.60
8227;BMP180;4154;48.810;9.012;2023-07-20T07:27:58;97065.00;;;19.60
8227;BMP180;4154;48.810;9.012;2023-07-20T07:30:24;97067.00;;;19.70
8227;BMP180;4154;48.810;9.012;2023-07-20T07:32:49;97071.00;;;19.80
8227;BMP180;4154;48.810;9.012;2023-07-20T07:35:15;97069.00;;;19.90
8227;BMP180;4154;48.810;9.012;2023-07-20T07:37:41;97067.00;;;19.90
8227;BMP180;4154;48.810;9.012;2023-07-20T07:40:08;97056.00;;;20.00
8227;BMP180;4154;48.810;9.012;2023-07-20T07:42:34;97064.00;;;20.00
8227;BMP180;4154;48.810;9.012;2023-07-20T07:45:00;97067.00;;;20.10
8227;BMP180;4154;48.810;9.012;2023-07-20T07:47:26;97073.00;;;20.20
8227;BMP180;4154;48.810;9.012;2023-07-20T07:49:52;97066.00;;;20.20
8227;BMP180;4154;48.810;9.012;2023-07-20T07:52:18;97069.00;;;20.10
8227;BMP180;4154;48.810;9.012;2023-07-20T07:54:44;97061.00;;;20.10
8227;BMP180;4154;48.810;9.012;2023-07-20T07:57:10;97055.00;;;20.10
8227;BMP180;4154;48.810;9.012;2023-07-20T07:59:36;97071.00;;;20.10
8227;BMP180;4154;48.810;9.012;2023-07-20T08:02:05;97071.00;;;20.10
8227;BMP180;4154;48.810;9.012;2023-07-20T08:04:31;97073.00;;;20.00
8227;BMP180;4154;48.810;9.012;2023-07-20T08:06:58;97074.00;;;20.00
8227;BMP180;4154;48.810;9.012;2023-07-20T08:09:25;97060.00;;;20.00
8227;BMP180;4154;48.810;9.012;2023-07-20T08:11:51;97070.00;;;20.10
8227;BMP180;4154;48.810;9.012;2023-07-20T08:14:17;97068.00;;;20.10
8227;BMP180;4154;48.810;9.012;2023-07-20T08:16:43;97066.00;;;20.20
8227;BMP180;4154;48.810;9.012;2023-07-20T08:19:09;97061.00;;;20.30
8227;BMP180;4154;48.810;9.012;2023-07-20T08:21:34;97065.00;;;20.30
8227;BMP180;4154;48.810;9.012;2023-07-20T08:24:00;97064.00;;;20.40
8227;BMP180;4154;48.810;9.012;2023-07-20T08:26:26;97058.00;;;20.30
8227;BMP180;4154;48.810;9.012;2023-07-20T08:28:52;97055.00;;;20.40
8227;BMP180;4154;48.810;9.012;2023-07-20T08:31:18;97053.00;;;20.50
8227;BMP180;4154;48.810;9.012;2023-07-20T08:33:44;97049.00;;;20.50
8227;BMP180;4154;48.810;9.012;2023-07-20T08:36:10;97059.00;;;20.60
8227;BMP180;4154;48.810;9.012;2023-07-20T08:38:36;97057.00;;;20.60
8227;BMP180;4154;48.810;9.012;2023-07-20T08:41:02;97055.00;;;20.70
8227;BMP180;4154;48.810;9.012;2023-07-20T08:43:28;97052.00;;;20.60
8227;BMP180;4154;48.810;9.012;2023-07-20T08:45:55;97051.00;;;20.60
8227;BMP180;4154;48.810;9.012;2023-07-20T08:48:22;97048.00;;;20.60
8227;BMP180;4154;48.810;9.012;2023-07-20T08:50:52;97062.00;;;20.60
8227;BMP180;4154;48.810;9.012;2023-07-20T08:53:20;97061.00;;;20.80
8227;BMP180;4154;48.810;9.012;2023-07-20T08:55:50;97056.00;;;20.80
8227;BMP180;4154;48.810;9.012;2023-07-20T08:58:17;97049.00;;;20.90
8227;BMP180;4154;48.810;9.012;2023-07-20T09:00:43;97049.00;;;20.90
8227;BMP180;4154;48.810;9.012;2023-07-20T09:03:11;97056.00;;;20.90
8227;BMP180;4154;48.810;9.012;2023-07-20T09:05:37;97049.00;;;20.90
8227;BMP180;4154;48.810;9.012;2023-07-20T09:08:04;97056.00;;;20.80
8227;BMP180;4154;48.810;9.012;2023-07-20T09:10:31;97059.00;;;20.70
8227;BMP180;4154;48.810;9.012;2023-07-20T09:12:57;97055.00;;;20.90
8227;BMP180;4154;48.810;9.012;2023-07-20T09:15:23;97055.00;;;20.90
8227;BMP180;4154;48.810;9.012;2023-07-20T09:17:50;97046.00;;;21.00
8227;BMP180;4154;48.810;9.012;2023-07-20T09:20:18;97055.00;;;21.00
8227;BMP180;4154;48.810;9.012;2023-07-20T09:22:44;97054.00;;;21.20
8227;BMP180;4154;48.810;9.012;2023-07-20T09:25:16;97055.00;;;21.20
8227;BMP180;4154;48.810;9.012;2023-07-20T09:27:47;97050.00;;;21.20
8227;BMP180;4154;48.810;9.012;2023-07-20T09:30:15;97042.00;;;21.10
8227;BMP180;4154;48.810;9.012;2023-07-20T09:32:49;97045.00;;;21.10
8227;BMP180;4154;48.810;9.012;2023-07-20T09:35:21;97036.00;;;21.10
8227;BMP180;4154;48.810;9.012;2023-07-20T09:37:57;97057.00;;;21.30
8227;BMP180;4154;48.810;9.012;2023-07-20T09:40:25;97058.00;;;21.30
8227;BMP180;4154;48.810;9.012;2023-07-20T09:42:53;97043.00;;;21.40
8227;BMP180;4154;48.810;9.012;2023-07-20T09:45:41;97056.00;;;21.40
8227;BMP180;4154;48.810;9.012;2023-07-20T09:48:09;97050.00;;;21.40
8227;BMP180;4154;48.810;9.012;2023-07-20T09:50:49;97056.00;;;21.50
8227;BMP180;4154;48.810;9.012;2023-07-20T09:53:19;97049.00;;;21.50
8227;BMP180;4154;48.810;9.012;2023-07-20T09:55:48;97041.00;;;21.60
8227;BMP180;4154;48.810;9.012;2023-07-20T09:58:16;97047.00;;;21.80
8227;BMP180;4154;48.810;9.012;2023-07-20T10:00:43;97035.00;;;21.70
8227;BMP180;4154;48.810;9.012;2023-07-20T10:03:13;97035.00;;;21.80
8227;BMP180;4154;48.810;9.012;2023-07-20T10:05:47;97036.00;;;21.80
8227;BMP180;4154;48.810;9.012;2023-07-20T10:08:17;97040.00;;;21.90
8227;BMP180;4154;48.810;9.012;2023-07-20T10:10:44;97038.00;;;21.90
8227;BMP180;4154;48.810;9.012;2023-07-20T10:13:18;97035.00;;;22.00
8227;BMP180;4154;48.810;9.012;2023-07-20T10:15:50;97035.00;;;22.00
8227;BMP180;4154;48.810;9.012;2023-07-20T10:18:50;97040.00;;;21.90
8227;BMP180;4154;48.810;9.012;2023-07-20T10:21:19;97029.00;;;22.00
8227;BMP180;4154;48.810;9.012;2023-07-20T10:23:46;97035.00;;;21.90
8227;BMP180;4154;48.810;9.012;2023-07-20T10:26:12;97035.00;;;21.90
8227;BMP180;4154;48.810;9.012;2023-07-20T10:28:39;97033.00;;;22.00
8227;BMP180;4154;48.810;9.012;2023-07-20T10:31:08;97024.00;;;22.00
8227;BMP180;4154;48.810;9.012;2023-07-20T10:33:38;97025.00;;;22.10
8227;BMP180;4154;48.810;9.012;2023-07-20T10:36:05;97014.00;;;22.10
8227;BMP180;4154;48.810;9.012;2023-07-20T10:44:05;97016.00;;;22.30
8227;BMP180;4154;48.810;9.012;2023-07-20T10:46:44;97012.00;;;22.40
8227;BMP180;4154;48.810;9.012;2023-07-20T10:49:12;97012.00;;;22.40
8227;BMP180;4154;48.810;9.012;2023-07-20T10:51:46;97014.00;;;22.50
8227;BMP180;4154;48.810;9.012;2023-07-20T10:56:43;96998.00;;;22.50
8227;BMP180;4154;48.810;9.012;2023-07-20T11:01:55;96993.00;;;22.60
8227;BMP180;4154;48.810;9.012;2023-07-20T11:04:40;97000.00;;;22.70
8227;BMP180;4154;48.810;9.012;2023-07-20T11:07:06;96990.00;;;22.80
8227;BMP180;4154;48.810;9.012;2023-07-20T11:09:36;97001.00;;;22.80
8227;BMP180;4154;48.810;9.012;2023-07-20T11:12:14;96998.00;;;22.90
8227;BMP180;4154;48.810;9.012;2023-07-20T11:14:55;97007.00;;;22.90
8227;BMP180;4154;48.810;9.012;2023-07-20T11:17:32;97008.00;;;22.80
8227;BMP180;4154;48.810;9.012;2023-07-20T11:20:01;97003.00;;;22.80
8227;BMP180;4154;48.810;9.012;2023-07-20T11:22:27;97014.00;;;22.90
8227;BMP180;4154;48.810;9.012;2023-07-20T11:24:57;97017.00;;;23.00
8227;BMP180;4154;48.810;9.012;2023-07-20T11:27:24;97002.00;;;23.10
8227;BMP180;4154;48.810;9.012;2023-07-20T11:29:50;96989.00;;;23.00
8227;BMP180;4154;48.810;9.012;2023-07-20T11:32:23;96997.00;;;23.10
8227;BMP180;4154;48.810;9.012;2023-07-20T11:34:49;96991.00;;;23.10
8227;BMP180;4154;48.810;9.012;2023-07-20T11:37:16;96989.00;;;23.10
8227;BMP180;4154;48.810;9.012;2023-07-20T11:39:42;96985.00;;;23.20
8227;BMP180;4154;48.810;9.012;2023-07-20T11:42:08;96980.00;;;23.20
8227;BMP180;4154;48.810;9.012;2023-07-20T11:44:34;96982.00;;;23.20
8227;BMP180;4154;48.810;9.012;2023-07-20T11:47:13;96981.00;;;23.30
8227;BMP180;4154;48.810;9.012;2023-07-20T11:49:43;96970.00;;;23.40
8227;BMP180;4154;48.810;9.012;2023-07-20T11:52:18;96984.00;;;23.50
8227;BMP180;4154;48.810;9.012;2023-07-20T11:54:45;96985.00;;;23.60
8227;BMP180;4154;48.810;9.012;2023-07-20T11:57:20;96976.00;;;23.60
8227;BMP180;4154;48.810;9.012;2023-07-20T12:00:00;96979.00;;;23.70
8227;BMP180;4154;48.810;9.012;2023-07-20T12:02:28;96976.00;;;23.70
8227;BMP180;4154;48.810;9.012;2023-07-20T12:04:57;96966.00;;;23.80
8227;BMP180;4154;48.810;9.012;2023-07-20T12:07:25;96975.00;;;23.90
8227;BMP180;4154;48.810;9.012;2023-07-20T12:12:33;96957.00;;;24.00
8227;BMP180;4154;48.810;9.012;2023-07-20T12:15:25;96954.00;;;24.10
8227;BMP180;4154;48.810;9.012;2023-07-20T12:18:02;96959.00;;;24.00
8227;BMP180;4154;48.810;9.012;2023-07-20T12:20:33;96958.00;;;24.00
8227;BMP180;4154;48.810;9.012;2023-07-20T12:23:20;96963.00;;;24.00
8227;BMP180;4154;48.810;9.012;2023-07-20T12:25:46;96965.00;;;24.10
8227;BMP180;4154;48.810;9.012;2023-07-20T12:28:19;96965.00;;;24.10
8227;BMP180;4154;48.810;9.012;2023-07-20T12:30:46;96960.00;;;24.20
8227;BMP180;4154;48.810;9.012;2023-07-20T12:33:13;96955.00;;;24.20
8227;BMP180;4154;48.810;9.012;2023-07-20T12:35:42;96958.00;;;24.20
8227;BMP180;4154;48.810;9.012;2023-07-20T12:38:11;96952.00;;;24.20
8227;BMP180;4154;48.810;9.012;2023-07-20T12:40:37;96946.00;;;24.30
8227;BMP180;4154;48.810;9.012;2023-07-20T12:43:02;96939.00;;;24.30
8227;BMP180;4154;48.810;9.012;2023-07-20T12:45:30;96941.00;;;24.40
8227;BMP180;4154;48.810;9.012;2023-07-20T12:47:56;96931.00;;;24.40
8227;BMP180;4154;48.810;9.012;2023-07-20T12:50:22;96935.00;;;24.30
8227;BMP180;4154;48.810;9.012;2023-07-20T12:52:47;96937.00;;;24.50
8227;BMP180;4154;48.810;9.012;2023-07-20T12:55:13;96929.00;;;24.50
8227;BMP180;4154;48.810;9.012;2023-07-20T12:57:41;96935.00;;;24.50
8227;BMP180;4154;48.810;9.012;2023-07-20T13:00:11;96928.00;;;24.40
8227;BMP180;4154;48.810;9.012;2023-07-20T13:02:38;96919.00;;;24.40
8227;BMP180;4154;48.810;9.012;2023-07-20T13:05:04;96927.00;;;24.40
8227;BMP180;4154;48.810;9.012;2023-07-20T13:07:38;96932.00;;;24.50
8227;BMP180;4154;48.810;9.012;2023-07-20T13:10:05;96930.00;;;24.50
8227;BMP180;4154;48.810;9.012;2023-07-20T13:12:33;96915.00;;;24.60
8227;BMP180;4154;48.810;9.012;2023-07-20T13:14:59;96920.00;;;24.70
8227;BMP180;4154;48.810;9.012;2023-07-20T13:17:27;96912.00;;;24.80
8227;BMP180;4154;48.810;9.012;2023-07-20T13:19:53;96917.00;;;24.80
8227;BMP180;4154;48.810;9.012;2023-07-20T13:22:19;96915.00;;;24.90
8227;BMP180;4154;48.810;9.012;2023-07-20T13:24:46;96920.00;;;24.90
8227;BMP180;4154;48.810;9.012;2023-07-20T13:27:16;96919.00;;;24.90
8227;BMP180;4154;48.810;9.012;2023-07-20T13:29:42;96911.00;;;24.90
8227;BMP180;4154;48.810;9.012;2023-07-20T13:32:10;96921.00;;;24.80
8227;BMP180;4154;48.810;9.012;2023-07-20T13:34:36;96907.00;;;24.90
8227;BMP180;4154;48.810;9.012;2023-07-20T13:37:02;96921.00;;;24.90
8227;BMP180;4154;48.810;9.012;2023-07-20T13:39:28;96922.00;;;24.90
8227;BMP180;4154;48.810;9.012;2023-07-20T13:41:54;96910.00;;;25.00
8227;BMP180;4154;48.810;9.012;2023-07-20T13:44:20;96905.00;;;25.00
8227;BMP180;4154;48.810;9.012;2023-07-20T13:46:47;96898.00;;;24.90
8227;BMP180;4154;48.810;9.012;2023-07-20T13:49:13;96904.00;;;25.00
8227;BMP180;4154;48.810;9.012;2023-07-20T13:51:41;96908.00;;;25.10
8227;BMP180;4154;48.810;9.012;2023-07-20T13:54:07;96896.00;;;25.10
8227;BMP180;4154;48.810;9.012;2023-07-20T13:56:33;96899.00;;;25.10
8227;BMP180;4154;48.810;9.012;2023-07-20T13:58:59;96891.00;;;25.10
8227;BMP180;4154;48.810;9.012;2023-07-20T14:01:25;96899.00;;;25.10
8227;BMP180;4154;48.810;9.012;2023-07-20T14:03:51;96892.00;;;25.20
8227;BMP180;4154;48.810;9.012;2023-07-20T14:06:17;96886.00;;;25.30
8227;BMP180;4154;48.810;9.012;2023-07-20T14:08:43;96879.00;;;25.30
8227;BMP180;4154;48.810;9.012;2023-07-20T14:11:12;96875.00;;;25.30
8227;BMP180;4154;48.810;9.012;2023-07-20T14:13:38;96876.00;;;25.30
8227;BMP180;4154;48.810;9.012;2023-07-20T14:16:05;96889.00;;;25.30
8227;BMP180;4154;48.810;9.012;2023-07-20T14:18:31;96872.00;;;25.40
8227;BMP180;4154;48.810;9.012;2023-07-20T14:20:57;96871.00;;;25.30
8227;BMP180;4154;48.810;9.012;2023-07-20T14:23:23;96879.00;;;25.20
8227;BMP180;4154;48.810;9.012;2023-07-20T14:25:49;96877.00;;;25.30
8227;BMP180;4154;48.810;9.012;2023-07-20T14:28:15;96880.00;;;25.30
8227;BMP180;4154;48.810;9.012;2023-07-20T14:30:41;96871.00;;;25.50
8227;BMP180;4154;48.810;9.012;2023-07-20T14:33:07;96866.00;;;25.60
8227;BMP180;4154;48.810;9.012;2023-07-20T14:35:34;96867.00;;;25.60
8227;BMP180;4154;48.810;9.012;2023-07-20T14:38:00;96866.00;;;25.50
8227;BMP180;4154;48.810;9.012;2023-07-20T14:40:26;96857.00;;;25.40
8227;BMP180;4154;48.810;9.012;2023-07-20T14:42:52;96861.00;;;25.40
8227;BMP180;4154;48.810;9.012;2023-07-20T14:45:18;96871.00;;;25.50
8227;BMP180;4154;48.810;9.012;2023-07-20T14:47:44;96871.00;;;25.50
8227;BMP180;4154;48.810;9.012;2023-07-20T14:50:11;96871.00;;;25.50
8227;BMP180;4154;48.810;9.012;2023-07-20T14:52:37;96863.00;;;25.40
8227;BMP180;4154;48.810;9.012;2023-07-20T14:55:03;96868.00;;;25.40